Lake Forest, CA (92609)

8:11 PM PDT on October 25, 2014 (GMT -0700)
Lake Forest 1 | Change Station
CLOSE
Current Station
Personal Weather Station
Location: Lake Forest, CA
Elevation: 390 ft
Nearby Weather Stations
Active Advisory: Beach Hazard Statement

Elev 390 ft 33.63 °N, 117.70 °W | Updated 1 minute ago

Partly Cloudy
Partly Cloudy
67.3 °F
Feels Like 67.3 °F
N
0.0
Wind Variable Wind from NW
Gusts 0.0 mph

Today
High -- | Low -- °F
--% Chance of Precip.
Yesterday
High -- | Low -- °F
Precip. -- in
7:03 AM 6:05 PM
Waxing Crescent, 5% visible
Pressure 30.00 in
Visibility 10.0 miles
Clouds Clear
Dew Point 60 °F
Humidity 78%
Rainfall 0.00 in
Snow Depth Not available.
UV 0 out of 12
Pollen 3.80 out of 12
Ozone Good
PM2.5 Good
Flu Activity Sporadic
METAR KSNA 260253Z 29004KT 10SM CLR 22/16 A3000 RMK AO2 SLP159 T02220156 53004

More Conditions Fewer Conditions

Pressure 30.00 in
Visibility 10.0 miles
Clouds Clear
Dew Point 60 °F
Humidity 78%
Rainfall 0.00 in
Snow Depth Not available.
UV 0 out of 12
Pollen 3.80 out of 12
Ozone Good
PM2.5 Good
Flu Activity Sporadic
METAR KSNA 260253Z 29004KT 10SM CLR 22/16 A3000 RMK AO2 SLP159 T02220156 53004

More Conditions Fewer Conditions

10-Day Weather Forecast

Almanac

Astronomy

Oct. 25, 2014 Rise Set
Actual Time 7:03 AM PDT 6:05 PM PDT
Civil Twilight 6:38 AM PDT 6:30 PM PDT
Nautical Twilight 6:09 AM PDT 6:59 PM PDT
Astronomical Twilight 5:40 AM PDT 7:28 PM PDT
Moon 8:43 AM PDT (10/25) 7:36 PM PDT (10/25)
Length of Visible Light 11h 52m
Length of Day
11h 01m
Tomorrow will be 1m 54s shorter.
Waxing Crescent, 5% of the Moon is Illuminated
Today
Waxing Crescent
Oct 30
First Quarter
Nov 6
Full
Nov 14
Last Quarter
Nov 22
New

Today's Extremes

State Highs State Lows

Community

WunderPhotos

Upload Photos

1,765,093 photos uploaded!

Nearby

Air Quality

  Air Quality AQ Index Pollutant
Yesterday Good
PM10
Yesterday Good
OZONE
Current Good
PM2.5
Current Good
OZONE
Sunday Good
PM10
Sunday Good
OZONE
Sunday Good
CO
Sunday Good
NO2

Snow Depth

Station Depth Elevation
Virginia Lakes Ridge 0 in 9200 ft
Leavitt Lake 0 in 9400 ft
Sonora Pass 0 in 8800 ft
Poison Flat 0 in 7900 ft
Ebbetts Pass 0 in 8700 ft

Earthquake Activity

City Distance Mag. Time & Date
Barstow, California 105 miles 2.9 2:48 PM PDT
2014-10-25
Running Springs, California 58 miles 3.1 4:07 AM PDT
2014-10-25
Maneadero, Mexico 174 miles 2.5 7:44 AM PDT
2014-10-24
Brea, California 24 miles 2.9 3:35 PM PDT
2014-10-23
Minimum magnitude displayed is 2.5.

Coastal Water Temperatures

Place Temperature
Santa Monica Pier 70.0 °F
Los Angeles, CA 69.1 °F
La Jolla, CA 72.0 °F

Nearby Weather Stations